RJNY(METAR)
10/16 18:00
METAR RJNY 160900Z 03005KT 360V060 9999 FEW020 BKN050 18/14 Q1022
RMK 1CU020 5SC050 A3021=
戻る
トップページへ戻る
IMOC Co,.Ltd.